Time;durP1;ratioP1;P1;durP2;ratioP2;P2;SDS_P1;SDS_P2;PMS_P1;PMS_P2;Temp;Humidity;BMP_temperature;BMP_pressure;BME280_temperature;BME280_humidity;BME280_pressure;Samples;Min_cycle;Max_cycle;Signal;HPM_P1;HPM_P2
2022/03/28 00:00:09;;;;;;;18.23;10.23;;;;;;;;;;4834617;29;20114;-68
2022/03/28 00:02:37;;;;;;;19.08;9.75;;;;;;;;;;4820234;29;20094;-69
2022/03/28 00:05:04;;;;;;;19.45;9.93;;;;;;;;;;4820669;29;20050;-69
2022/03/28 00:07:30;;;;;;;18.55;9.20;;;;;;;;;;4820584;29;20061;-69
2022/03/28 00:09:56;;;;;;;16.77;8.68;;;;;;;;;;4834547;29;20130;-69
2022/03/28 00:12:22;;;;;;;17.00;8.57;;;;;;;;;;4820595;29;20066;-71
2022/03/28 00:14:48;;;;;;;17.08;9.30;;;;;;;;;;4833909;29;20050;-70
2022/03/28 00:17:15;;;;;;;18.65;9.55;;;;;;;;;;4820671;29;20074;-70
2022/03/28 00:19:41;;;;;;;21.17;9.38;;;;;;;;;;4819995;29;20516;-69
2022/03/28 00:22:07;;;;;;;21.98;9.40;;;;;;;;;;4820711;29;20055;-69
2022/03/28 00:24:33;;;;;;;20.48;9.95;;;;;;;;;;4820131;29;20110;-69
2022/03/28 00:26:59;;;;;;;20.73;9.30;;;;;;;;;;4820558;29;20057;-70
2022/03/28 00:29:25;;;;;;;21.25;9.10;;;;;;;;;;4820611;29;20404;-70
2022/03/28 00:31:51;;;;;;;20.27;9.85;;;;;;;;;;4803862;29;20085;-69
2022/03/28 00:34:21;;;;;;;18.85;10.02;;;;;;;;;;4820524;29;20051;-69
2022/03/28 00:36:49;;;;;;;18.73;9.32;;;;;;;;;;4820415;29;20057;-68
2022/03/28 00:39:16;;;;;;;18.13;9.25;;;;;;;;;;4820307;29;20061;-69
2022/03/28 00:41:43;;;;;;;16.00;8.60;;;;;;;;;;4820508;29;20050;-69
2022/03/28 00:44:08;;;;;;;;;;;;;;;;;;4820815;29;20107;-69
2022/03/28 00:46:35;;;;;;;15.73;8.20;;;;;;;;;;4820380;29;20023;-70
2022/03/28 00:49:01;;;;;;;16.02;7.75;;;;;;;;;;4820519;29;20126;-69
2022/03/28 00:51:27;;;;;;;19.10;8.48;;;;;;;;;;4834215;29;20194;-70
2022/03/28 00:53:53;;;;;;;16.02;8.43;;;;;;;;;;4820344;29;20206;-70
2022/03/28 00:56:20;;;;;;;15.50;7.97;;;;;;;;;;4820450;29;20077;-70
2022/03/28 00:58:47;;;;;;;13.98;8.32;;;;;;;;;;4833920;29;20437;-70
2022/03/28 01:01:13;;;;;;;15.48;7.82;;;;;;;;;;4820677;29;20161;-70
2022/03/28 01:03:39;;;;;;;;;;;;;;;;;;4804072;29;20510;-70
2022/03/28 01:06:06;;;;;;;17.00;8.52;;;;;;;;;;4820663;29;19925;-70
2022/03/28 01:08:33;;;;;;;15.77;8.00;;;;;;;;;;4820179;29;20062;-70
2022/03/28 01:11:02;;;;;;;16.27;8.27;;;;;;;;;;4820351;29;20062;-69
2022/03/28 01:13:28;;;;;;;17.92;8.88;;;;;;;;;;4820178;29;20069;-70
2022/03/28 01:15:54;;;;;;;15.05;8.48;;;;;;;;;;4818732;29;20108;-70
2022/03/28 01:18:23;;;;;;;14.40;8.38;;;;;;;;;;4823197;29;20137;-70
2022/03/28 01:20:50;;;;;;;15.88;8.18;;;;;;;;;;4806291;29;20125;-70
2022/03/28 01:23:16;;;;;;;;;;;;;;;;;;4807800;29;20155;-70
2022/03/28 01:25:45;;;;;;;16.35;8.57;;;;;;;;;;4823176;29;19968;-70
2022/03/28 01:28:11;;;;;;;17.30;9.00;;;;;;;;;;4823484;29;20051;-70
2022/03/28 01:30:37;;;;;;;17.13;9.13;;;;;;;;;;4837214;29;20058;-70
2022/03/28 01:33:03;;;;;;;17.13;8.93;;;;;;;;;;4823261;29;20066;-69
2022/03/28 01:35:31;;;;;;;17.52;8.95;;;;;;;;;;4822109;29;20050;-70
2022/03/28 01:37:57;;;;;;;16.08;8.90;;;;;;;;;;4823018;29;20110;-70
2022/03/28 01:40:24;;;;;;;17.30;9.57;;;;;;;;;;4823152;29;20066;-69
2022/03/28 01:42:50;;;;;;;18.13;10.20;;;;;;;;;;4806401;29;20165;-70
2022/03/28 01:45:17;;;;;;;17.98;9.25;;;;;;;;;;4806615;29;20050;-69
2022/03/28 01:47:43;;;;;;;21.27;9.77;;;;;;;;;;4823025;29;20133;-70
2022/03/28 01:50:10;;;;;;;16.95;10.43;;;;;;;;;;4836812;29;20392;-70
2022/03/28 01:52:36;;;;;;;18.52;9.60;;;;;;;;;;4822999;29;20201;-70
2022/03/28 01:55:02;;;;;;;22.08;10.35;;;;;;;;;;4806549;29;20054;-70
2022/03/28 01:57:28;;;;;;;21.63;10.38;;;;;;;;;;4806354;29;20069;-70
2022/03/28 01:59:54;;;;;;;22.85;11.27;;;;;;;;;;4836613;29;20046;-70
2022/03/28 02:02:20;;;;;;;22.50;11.55;;;;;;;;;;4822741;29;20077;-70
2022/03/28 02:04:46;;;;;;;18.80;11.70;;;;;;;;;;4836590;29;20440;-70
2022/03/28 02:07:12;;;;;;;22.90;11.25;;;;;;;;;;4822943;29;20129;-70
2022/03/28 02:09:38;;;;;;;20.67;10.73;;;;;;;;;;4822832;29;20051;-70
2022/03/28 02:12:05;;;;;;;22.23;10.13;;;;;;;;;;4836657;29;20432;-70
2022/03/28 02:14:31;;;;;;;24.77;11.15;;;;;;;;;;4822904;29;20074;-70
2022/03/28 02:16:57;;;;;;;18.00;9.77;;;;;;;;;;4836698;29;20054;-70
2022/03/28 02:19:23;;;;;;;19.65;10.35;;;;;;;;;;4822662;29;20152;-69
2022/03/28 02:21:49;;;;;;;18.10;8.93;;;;;;;;;;4836151;29;20383;-69
2022/03/28 02:24:16;;;;;;;21.23;9.82;;;;;;;;;;4822617;29;20145;-69
2022/03/28 02:26:42;;;;;;;19.58;9.75;;;;;;;;;;4822334;29;20448;-69
2022/03/28 02:29:08;;;;;;;20.38;10.23;;;;;;;;;;4822237;29;20046;-69
2022/03/28 02:31:34;;;;;;;20.58;10.10;;;;;;;;;;4805750;29;20054;-69
2022/03/28 02:34:00;;;;;;;18.92;9.75;;;;;;;;;;4821518;29;20098;-69
2022/03/28 02:36:26;;;;;;;20.60;9.52;;;;;;;;;;4822258;29;20054;-69
2022/03/28 02:38:52;;;;;;;21.40;10.98;;;;;;;;;;4821863;29;20126;-69
2022/03/28 02:41:18;;;;;;;20.30;10.30;;;;;;;;;;4836246;29;20095;-69
2022/03/28 02:43:44;;;;;;;20.38;10.82;;;;;;;;;;4835769;29;20130;-70
2022/03/28 02:46:11;;;;;;;18.85;10.45;;;;;;;;;;4821927;29;20064;-69
2022/03/28 02:48:37;;;;;;;20.90;10.25;;;;;;;;;;4822005;29;20130;-69
2022/03/28 02:51:03;;;;;;;20.55;11.27;;;;;;;;;;4821715;29;20123;-69
2022/03/28 02:53:29;;;;;;;21.70;10.63;;;;;;;;;;4835851;29;20119;-69
2022/03/28 02:55:55;;;;;;;22.08;11.88;;;;;;;;;;4821729;29;20065;-69
2022/03/28 02:58:21;;;;;;;20.45;12.02;;;;;;;;;;4821680;29;20089;-69
2022/03/28 03:00:47;;;;;;;19.90;11.50;;;;;;;;;;4835277;29;20079;-69
2022/03/28 03:03:13;;;;;;;18.38;10.18;;;;;;;;;;4805218;29;20162;-69
2022/03/28 03:05:40;;;;;;;18.58;10.70;;;;;;;;;;4821860;29;20279;-68
2022/03/28 03:08:06;;;;;;;20.60;10.40;;;;;;;;;;4835156;29;20163;-69
2022/03/28 03:10:33;;;;;;;18.15;10.02;;;;;;;;;;4790148;29;20050;-68
2022/03/28 03:12:59;;;;;;;20.38;10.00;;;;;;;;;;4821548;29;20130;-69
2022/03/28 03:15:25;;;;;;;17.17;10.55;;;;;;;;;;4821524;29;20194;-68
2022/03/28 03:17:51;;;;;;;17.00;9.40;;;;;;;;;;4835138;29;20453;-69
2022/03/28 03:20:17;;;;;;;17.52;9.38;;;;;;;;;;4820321;29;20062;-69
2022/03/28 03:22:43;;;;;;;17.55;9.02;;;;;;;;;;4821661;29;20090;-69
2022/03/28 03:25:09;;;;;;;18.92;9.35;;;;;;;;;;4821576;29;20129;-68
2022/03/28 03:27:39;;;;;;;18.67;8.93;;;;;;;;;;4821437;29;20506;-68
2022/03/28 03:30:06;;;;;;;20.98;9.93;;;;;;;;;;4821430;29;20513;-69
2022/03/28 03:32:32;;;;;;;17.90;8.90;;;;;;;;;;4821524;29;20062;-68
2022/03/28 03:34:58;;;;;;;19.60;9.50;;;;;;;;;;4804854;29;20050;-68
2022/03/28 03:37:27;;;;;;;19.02;8.60;;;;;;;;;;4821708;29;20162;-69
2022/03/28 03:39:53;;;;;;;21.42;9.23;;;;;;;;;;4820700;29;20182;-69
2022/03/28 03:42:19;;;;;;;16.98;9.10;;;;;;;;;;4821416;29;20522;-68
2022/03/28 03:44:46;;;;;;;17.63;8.80;;;;;;;;;;4835095;29;20491;-68
2022/03/28 03:47:12;;;;;;;17.35;9.10;;;;;;;;;;4821220;29;20050;-69
2022/03/28 03:49:38;;;;;;;17.02;9.45;;;;;;;;;;4834676;29;20062;-69
2022/03/28 03:52:04;;;;;;;18.42;9.77;;;;;;;;;;4820914;29;20393;-69
2022/03/28 03:54:31;;;;;;;18.42;9.23;;;;;;;;;;4821206;29;20103;-69
2022/03/28 03:56:58;;;;;;;16.30;7.53;;;;;;;;;;4834069;29;20489;-69
2022/03/28 03:59:24;;;;;;;14.10;7.32;;;;;;;;;;4834736;29;20142;-69
2022/03/28 04:01:51;;;;;;;15.23;6.93;;;;;;;;;;4821093;29;20419;-69
2022/03/28 04:04:17;;;;;;;14.50;7.03;;;;;;;;;;4820914;29;20456;-69
2022/03/28 04:06:43;;;;;;;13.93;6.47;;;;;;;;;;4821103;29;20054;-69
2022/03/28 04:09:09;;;;;;;12.13;5.25;;;;;;;;;;4820550;29;20452;-69
2022/03/28 04:11:36;;;;;;;11.68;5.18;;;;;;;;;;4821013;29;20050;-69
2022/03/28 04:14:03;;;;;;;13.05;5.65;;;;;;;;;;4820680;29;20073;-69
2022/03/28 04:16:32;;;;;;;11.45;4.68;;;;;;;;;;4820915;29;20133;-69
2022/03/28 04:18:58;;;;;;;11.55;4.95;;;;;;;;;;4833922;29;20065;-69
2022/03/28 04:21:24;;;;;;;12.75;5.47;;;;;;;;;;4820160;29;20063;-69
2022/03/28 04:23:50;;;;;;;12.73;5.22;;;;;;;;;;4819495;29;20058;-68
2022/03/28 04:26:16;;;;;;;11.68;4.95;;;;;;;;;;4834293;29;20165;-68
2022/03/28 04:28:42;;;;;;;12.25;5.13;;;;;;;;;;4820671;29;20055;-68
2022/03/28 04:31:09;;;;;;;10.43;4.22;;;;;;;;;;4820703;29;20137;-68
2022/03/28 04:33:38;;;;;;;11.07;4.75;;;;;;;;;;4820511;29;20050;-68
2022/03/28 04:36:04;;;;;;;11.80;4.97;;;;;;;;;;4803845;29;20050;-68
2022/03/28 04:38:30;;;;;;;;;;;;;;;;;;4820798;29;20051;-68
2022/03/28 04:40:56;;;;;;;12.43;5.43;;;;;;;;;;4820625;29;19973;-68
2022/03/28 04:43:22;;;;;;;12.18;5.60;;;;;;;;;;4820558;29;20042;-68
2022/03/28 04:45:49;;;;;;;10.68;4.47;;;;;;;;;;4834265;29;20141;-67
2022/03/28 04:48:16;;;;;;;;;;;;;;;;;;4820556;29;20491;-68
2022/03/28 04:50:42;;;;;;;9.65;3.38;;;;;;;;;;4821414;29;20019;-69
2022/03/28 04:53:09;;;;;;;9.52;3.67;;;;;;;;;;4823942;29;20359;-68
2022/03/28 04:55:35;;;;;;;10.30;3.65;;;;;;;;;;4824591;29;20058;-67
2022/03/28 04:58:02;;;;;;;10.57;4.38;;;;;;;;;;4807394;29;20118;-68
2022/03/28 05:00:31;;;;;;;9.20;3.83;;;;;;;;;;4837146;29;20464;-68
2022/03/28 05:02:57;;;;;;;11.90;4.15;;;;;;;;;;4823800;29;20107;-68
2022/03/28 05:05:23;;;;;;;9.95;4.30;;;;;;;;;;4823804;29;20486;-67
2022/03/28 05:07:49;;;;;;;11.43;4.97;;;;;;;;;;4823852;29;20099;-68
2022/03/28 05:10:16;;;;;;;11.32;5.22;;;;;;;;;;4807312;29;20157;-68
2022/03/28 05:12:42;;;;;;;15.50;7.05;;;;;;;;;;4823672;29;20126;-67
2022/03/28 05:15:08;;;;;;;16.38;8.45;;;;;;;;;;4806856;29;20141;-68
2022/03/28 05:17:34;;;;;;;17.08;9.00;;;;;;;;;;4823452;29;20099;-68
2022/03/28 05:20:02;;;;;;;16.67;8.18;;;;;;;;;;4806512;29;20103;-67
2022/03/28 05:22:32;;;;;;;17.92;9.23;;;;;;;;;;4836934;29;20145;-68
2022/03/28 05:24:58;;;;;;;19.33;10.60;;;;;;;;;;4836995;29;20061;-67
2022/03/28 05:27:24;;;;;;;19.10;10.20;;;;;;;;;;4791515;29;20379;-67
2022/03/28 05:29:50;;;;;;;;;;;;;;;;;;4821773;29;20069;-67
2022/03/28 05:32:17;;;;;;;20.75;9.77;;;;;;;;;;4822869;29;19948;-68
2022/03/28 05:34:44;;;;;;;20.15;10.63;;;;;;;;;;4822672;29;20145;-68
2022/03/28 05:37:12;;;;;;;18.48;10.55;;;;;;;;;;4836294;29;20163;-68
2022/03/28 05:39:39;;;;;;;22.02;11.20;;;;;;;;;;4835883;29;20073;-67
2022/03/28 05:42:08;;;;;;;18.95;10.68;;;;;;;;;;4822075;29;20069;-68
2022/03/28 05:44:35;;;;;;;20.70;10.80;;;;;;;;;;4821522;29;20137;-66
2022/03/28 05:47:01;;;;;;;20.05;10.68;;;;;;;;;;4835395;29;20098;-68
2022/03/28 05:49:27;;;;;;;20.88;10.45;;;;;;;;;;4835804;29;20054;-68
2022/03/28 05:51:53;;;;;;;20.33;10.52;;;;;;;;;;4835956;29;20061;-68
2022/03/28 05:54:19;;;;;;;;;;;;;;;;;;4822136;29;20058;-68
2022/03/28 05:56:46;;;;;;;17.88;9.52;;;;;;;;;;4821565;29;20327;-68
2022/03/28 05:59:12;;;;;;;;;;;;;;;;;;4821794;29;20054;-69
2022/03/28 06:01:39;;;;;;;19.63;12.07;;;;;;;;;;4820553;29;20040;-69
2022/03/28 06:04:05;;;;;;;20.63;11.70;;;;;;;;;;4821053;29;20082;-69
2022/03/28 06:06:33;;;;;;;21.70;12.45;;;;;;;;;;4804943;29;20187;-69
2022/03/28 06:08:59;;;;;;;22.75;12.90;;;;;;;;;;4822102;29;20054;-67
2022/03/28 06:11:25;;;;;;;22.40;12.82;;;;;;;;;;4821121;29;20069;-68
2022/03/28 06:13:51;;;;;;;21.50;13.20;;;;;;;;;;4821694;29;20145;-70
2022/03/28 06:16:17;;;;;;;25.40;14.25;;;;;;;;;;4821543;29;20091;-71
2022/03/28 06:18:43;;;;;;;22.08;13.88;;;;;;;;;;4835487;29;20117;-69
2022/03/28 06:21:11;;;;;;;25.10;12.98;;;;;;;;;;4821174;29;20066;-70
2022/03/28 06:23:37;;;;;;;20.52;12.77;;;;;;;;;;4834713;29;20521;-67
2022/03/28 06:26:04;;;;;;;20.42;12.88;;;;;;;;;;4834795;29;20112;-67
2022/03/28 06:28:30;;;;;;;21.67;13.38;;;;;;;;;;4820956;29;20564;-66
2022/03/28 06:30:57;;;;;;;21.10;13.35;;;;;;;;;;4821147;29;20054;-70
2022/03/28 06:33:23;;;;;;;22.33;11.95;;;;;;;;;;4803832;29;20065;-70
2022/03/28 06:35:49;;;;;;;18.10;10.40;;;;;;;;;;4821103;29;20051;-70
2022/03/28 06:38:16;;;;;;;18.45;11.35;;;;;;;;;;4820600;29;20514;-70
2022/03/28 06:40:42;;;;;;;;;;;;;;;;;;4819585;29;20054;-70
2022/03/28 06:43:08;;;;;;;23.17;11.27;;;;;;;;;;4820985;29;20383;-71
2022/03/28 06:45:36;;;;;;;20.58;12.70;;;;;;;;;;4820787;29;20046;-69
2022/03/28 06:48:02;;;;;;;20.95;13.07;;;;;;;;;;4804159;29;20109;-70
2022/03/28 06:50:29;;;;;;;22.42;12.68;;;;;;;;;;4820552;29;20082;-70
2022/03/28 06:52:55;;;;;;;20.02;12.52;;;;;;;;;;4834095;29;20416;-70
2022/03/28 06:55:22;;;;;;;19.92;12.38;;;;;;;;;;4820635;29;20050;-71
2022/03/28 06:57:48;;;;;;;22.65;12.70;;;;;;;;;;4803911;29;20405;-70
2022/03/28 07:00:19;;;;;;;24.83;13.07;;;;;;;;;;4820434;29;20383;-71
2022/03/28 07:02:45;;;;;;;19.67;12.23;;;;;;;;;;4820058;29;20062;-69
2022/03/28 07:05:11;;;;;;;;;;;;;;;;;;4820868;29;20058;-70
2022/03/28 07:07:42;;;;;;;24.27;15.10;;;;;;;;;;4820402;29;20045;-70
2022/03/28 07:10:09;;;;;;;22.67;14.48;;;;;;;;;;4820280;29;20388;-69
2022/03/28 07:12:36;;;;;;;;;;;;;;;;;;4820740;29;20433;-71
2022/03/28 07:15:03;;;;;;;24.65;14.90;;;;;;;;;;4817620;29;19924;-70
2022/03/28 07:17:29;;;;;;;26.38;16.02;;;;;;;;;;4832171;29;20089;-70
2022/03/28 07:19:55;;;;;;;26.08;16.30;;;;;;;;;;4833788;29;20058;-69
2022/03/28 07:22:21;;;;;;;24.52;14.65;;;;;;;;;;4820060;29;20187;-70
2022/03/28 07:24:47;;;;;;;23.58;14.30;;;;;;;;;;4820026;29;20112;-70
2022/03/28 07:27:14;;;;;;;25.27;14.32;;;;;;;;;;4820058;29;20094;-69
2022/03/28 07:29:43;;;;;;;23.00;14.82;;;;;;;;;;4819588;29;20470;-69
2022/03/28 07:32:09;;;;;;;25.08;15.48;;;;;;;;;;4820230;29;20114;-70
2022/03/28 07:34:36;;;;;;;;;;;;;;;;;;4820268;29;20064;-70
2022/03/28 07:37:09;;;;;;;30.35;18.00;;;;;;;;;;5101776;27;20407;-70
2022/03/28 07:39:38;;;;;;;30.27;17.65;;;;;;;;;;5099390;28;20072;-68
2022/03/28 07:42:07;;;;;;;32.28;18.25;;;;;;;;;;5084429;28;20139;-70
2022/03/28 07:44:34;;;;;;;29.95;18.73;;;;;;;;;;5088135;28;20062;-70
2022/03/28 07:47:08;;;;;;;32.95;18.88;;;;;;;;;;5102275;28;20141;-71
2022/03/28 07:49:35;;;;;;;28.23;16.85;;;;;;;;;;5104032;28;20048;-72
2022/03/28 07:52:03;;;;;;;28.88;16.58;;;;;;;;;;5103014;28;20209;-72
2022/03/28 07:54:29;;;;;;;26.08;16.63;;;;;;;;;;5103760;28;20086;-70
2022/03/28 07:56:55;;;;;;;27.45;17.60;;;;;;;;;;5104310;28;20178;-69
2022/03/28 07:59:23;;;;;;;35.22;21.67;;;;;;;;;;5103939;28;20059;-69
2022/03/28 08:01:51;;;;;;;36.58;21.80;;;;;;;;;;5102320;28;20130;-70
2022/03/28 08:04:17;;;;;;;35.78;22.73;;;;;;;;;;5104075;28;20364;-69
2022/03/28 08:06:46;;;;;;;44.42;27.13;;;;;;;;;;5103406;28;20058;-70
2022/03/28 08:09:12;;;;;;;41.92;27.10;;;;;;;;;;5085354;28;20185;-70
2022/03/28 08:11:38;;;;;;;38.72;25.25;;;;;;;;;;5103635;28;20540;-71
2022/03/28 08:14:05;;;;;;;36.10;22.20;;;;;;;;;;5104131;28;20048;-71
2022/03/28 08:16:31;;;;;;;35.35;22.40;;;;;;;;;;5101685;28;20139;-72
2022/03/28 08:18:58;;;;;;;33.03;20.77;;;;;;;;;;5103573;28;20067;-72
2022/03/28 08:21:25;;;;;;;;;;;;;;;;;;5103000;28;20455;-72
2022/03/28 08:23:51;;;;;;;32.13;20.63;;;;;;;;;;5103418;28;19969;-71
2022/03/28 08:26:17;;;;;;;32.45;20.08;;;;;;;;;;5104607;28;20040;-71
2022/03/28 08:28:45;;;;;;;32.22;20.60;;;;;;;;;;5103581;28;20043;-72
2022/03/28 08:31:12;;;;;;;30.73;19.23;;;;;;;;;;5103543;28;20432;-72
2022/03/28 08:33:38;;;;;;;31.33;20.20;;;;;;;;;;5103738;28;20116;-72
2022/03/28 08:36:04;;;;;;;31.95;20.02;;;;;;;;;;5103493;28;20056;-72
2022/03/28 08:38:34;;;;;;;;;;;;;;;;;;5104236;28;20055;-72
2022/03/28 08:41:01;;;;;;;30.42;20.23;;;;;;;;;;5103363;28;20336;-72
2022/03/28 08:43:26;;;;;;;;;;;;;;;;;;5103037;28;20044;-72
2022/03/28 08:45:53;;;;;;;28.48;19.35;;;;;;;;;;5103326;28;19920;-72
2022/03/28 08:48:19;;;;;;;31.60;20.50;;;;;;;;;;5072697;28;20059;-72
2022/03/28 08:50:52;;;;;;;36.65;20.70;;;;;;;;;;5089537;28;20463;-72
2022/03/28 08:53:18;;;;;;;30.05;19.50;;;;;;;;;;5090019;28;20398;-71
2022/03/28 08:55:45;;;;;;;29.08;20.00;;;;;;;;;;5090499;28;20052;-72
2022/03/28 08:58:12;;;;;;;29.58;20.35;;;;;;;;;;5090068;28;20056;-72
2022/03/28 09:00:38;;;;;;;;;;;;;;;;;;5088361;28;20171;-72
2022/03/28 09:03:04;;;;;;;31.90;20.48;;;;;;;;;;5088061;28;19956;-72
2022/03/28 09:05:31;;;;;;;31.98;21.48;;;;;;;;;;5089518;28;20044;-72
2022/03/28 09:07:58;;;;;;;29.17;20.60;;;;;;;;;;5088195;28;20694;-72
2022/03/28 09:10:24;;;;;;;;;;;;;;;;;;5088623;28;20122;-72
2022/03/28 09:13:04;;;;;;;31.67;20.00;;;;;;;;;;5088902;28;19920;-72
2022/03/28 09:15:45;;;;;;;32.35;21.77;;;;;;;;;;5071381;28;20087;-72
2022/03/28 09:18:29;;;;;;;32.47;20.85;;;;;;;;;;5086562;28;20044;-73
2022/03/28 09:20:57;;;;;;;32.17;21.40;;;;;;;;;;5076936;28;20047;-73
2022/03/28 09:23:34;;;;;;;29.70;20.15;;;;;;;;;;5085674;28;20438;-72
2022/03/28 09:26:06;;;;;;;31.75;20.38;;;;;;;;;;5084017;28;20072;-72
2022/03/28 09:28:39;;;;;;;33.72;21.70;;;;;;;;;;5084327;28;20047;-73
2022/03/28 09:31:24;;;;;;;30.02;19.27;;;;;;;;;;5083713;28;20166;-72
2022/03/28 09:33:53;;;;;;;31.90;20.50;;;;;;;;;;5088619;28;20449;-72
2022/03/28 09:36:34;;;;;;;36.72;21.65;;;;;;;;;;5088893;28;20548;-72
2022/03/28 09:39:00;;;;;;;36.47;22.58;;;;;;;;;;5088083;28;20124;-72
2022/03/28 09:41:30;;;;;;;62.15;24.05;;;;;;;;;;5086044;28;20067;-73
2022/03/28 09:43:56;;;;;;;45.33;23.88;;;;;;;;;;5087264;28;20043;-72
2022/03/28 09:46:26;;;;;;;33.42;22.60;;;;;;;;;;5087962;28;20048;-73
2022/03/28 09:48:53;;;;;;;53.20;23.13;;;;;;;;;;5087986;28;20066;-73
2022/03/28 09:51:22;;;;;;;34.08;22.08;;;;;;;;;;5083627;28;20056;-73
2022/03/28 09:53:49;;;;;;;35.63;21.95;;;;;;;;;;5068016;28;20399;-73
2022/03/28 09:56:17;;;;;;;35.55;21.67;;;;;;;;;;5088280;28;20086;-73
2022/03/28 09:58:46;;;;;;;33.03;22.05;;;;;;;;;;5085479;28;20131;-73
2022/03/28 10:01:18;;;;;;;33.10;20.88;;;;;;;;;;5085555;28;20049;-73
2022/03/28 10:03:45;;;;;;;30.15;20.25;;;;;;;;;;5086935;28;20080;-72
2022/03/28 10:06:12;;;;;;;31.75;18.13;;;;;;;;;;5086320;28;20088;-72
2022/03/28 10:08:38;;;;;;;29.17;18.98;;;;;;;;;;5085594;28;20055;-71
2022/03/28 10:11:05;;;;;;;29.85;18.67;;;;;;;;;;5071460;28;20064;-72
2022/03/28 10:13:31;;;;;;;30.67;18.92;;;;;;;;;;5083553;28;20059;-72
2022/03/28 10:15:58;;;;;;;27.48;19.08;;;;;;;;;;5069261;28;20040;-72
2022/03/28 10:18:30;;;;;;;29.10;18.80;;;;;;;;;;5086639;28;20143;-72
2022/03/28 10:20:58;;;;;;;25.75;17.08;;;;;;;;;;5086193;28;20131;-72
2022/03/28 10:23:27;;;;;;;29.40;18.98;;;;;;;;;;5087711;28;20043;-70
2022/03/28 10:25:56;;;;;;;28.75;18.77;;;;;;;;;;5087908;28;20044;-72
2022/03/28 10:28:22;;;;;;;28.10;17.65;;;;;;;;;;5086801;28;20052;-72
2022/03/28 10:30:48;;;;;;;29.67;19.08;;;;;;;;;;5081863;28;20472;-72
2022/03/28 10:33:19;;;;;;;29.27;18.90;;;;;;;;;;5082881;28;20116;-72
2022/03/28 10:35:59;;;;;;;28.40;19.45;;;;;;;;;;5079681;28;20051;-72
2022/03/28 10:38:25;;;;;;;31.00;18.65;;;;;;;;;;5084227;28;20159;-72
2022/03/28 10:40:52;;;;;;;;;;;;;;;;;;5085990;28;20083;-74
2022/03/28 10:43:18;;;;;;;30.02;18.83;;;;;;;;;;5080083;28;19950;-72
2022/03/28 10:45:49;;;;;;;28.30;18.70;;;;;;;;;;5085294;28;20127;-71
2022/03/28 10:48:16;;;;;;;29.10;18.73;;;;;;;;;;5078694;28;20147;-72
2022/03/28 10:50:48;;;;;;;29.67;18.77;;;;;;;;;;5078450;28;20464;-69
2022/03/28 10:53:19;;;;;;;27.33;19.30;;;;;;;;;;5082652;28;20059;-70
2022/03/28 10:55:52;;;;;;;29.40;19.42;;;;;;;;;;5085558;28;20052;-71
2022/03/28 10:58:24;;;;;;;27.95;19.77;;;;;;;;;;5084817;28;20040;-71
2022/03/28 11:01:11;;;;;;;29.33;18.60;;;;;;;;;;5083676;28;20748;-72
2022/03/28 11:03:44;;;;;;;28.02;18.60;;;;;;;;;;5082875;28;20132;-72
2022/03/28 11:06:11;;;;;;;31.90;17.67;;;;;;;;;;5066093;28;20044;-71
2022/03/28 11:08:38;;;;;;;29.88;18.10;;;;;;;;;;5075278;28;20409;-70
2022/03/28 11:11:20;;;;;;;32.03;19.50;;;;;;;;;;5074791;28;20047;-71
2022/03/28 11:14:03;;;;;;;25.98;17.60;;;;;;;;;;5085294;28;20441;-70
2022/03/28 11:16:45;;;;;;;31.17;19.55;;;;;;;;;;5084297;28;20150;-71
2022/03/28 11:19:21;;;;;;;27.83;19.40;;;;;;;;;;5077341;28;20048;-71
2022/03/28 11:22:16;;;;;;;30.08;19.50;;;;;;;;;;5085145;28;20119;-71
2022/03/28 11:24:42;;;;;;;27.70;19.60;;;;;;;;;;5074096;28;20048;-70
2022/03/28 11:27:12;;;;;;;30.48;18.85;;;;;;;;;;5081966;28;20055;-71
2022/03/28 11:29:38;;;;;;;29.45;20.00;;;;;;;;;;5082490;28;20110;-71
2022/03/28 11:32:12;;;;;;;29.70;19.40;;;;;;;;;;5086252;28;20436;-72
2022/03/28 11:34:38;;;;;;;27.38;18.70;;;;;;;;;;5084253;28;20048;-70
2022/03/28 11:37:05;;;;;;;27.60;19.67;;;;;;;;;;5081155;28;20155;-72
2022/03/28 11:39:33;;;;;;;;;;;;;;;;;;5084830;28;20052;-72
2022/03/28 11:42:00;;;;;;;28.40;18.73;;;;;;;;;;5081988;28;19969;-72
2022/03/28 11:44:26;;;;;;;27.60;18.90;;;;;;;;;;5083613;28;20123;-72
2022/03/28 11:46:57;;;;;;;28.10;18.15;;;;;;;;;;5084665;28;20146;-72
2022/03/28 11:49:23;;;;;;;31.10;18.38;;;;;;;;;;5082628;28;20044;-71
2022/03/28 11:51:49;;;;;;;27.80;18.92;;;;;;;;;;5085115;28;20146;-73
2022/03/28 11:54:17;;;;;;;26.63;18.10;;;;;;;;;;5105212;28;20418;-72
2022/03/28 11:59:30;;;;;;;26.55;17.48;;;;;;;;;;5078920;28;20052;-73
2022/03/28 12:02:00;;;;;;;29.17;18.10;;;;;;;;;;5072228;28;20048;-72
2022/03/28 12:04:26;;;;;;;26.25;18.17;;;;;;;;;;5074952;28;20059;-71
2022/03/28 12:06:52;;;;;;;30.52;18.65;;;;;;;;;;5067465;28;20075;-71
2022/03/28 12:09:23;;;;;;;28.27;16.52;;;;;;;;;;5069047;28;20127;-71
2022/03/28 12:11:50;;;;;;;29.73;18.92;;;;;;;;;;5082060;28;20141;-68
2022/03/28 12:14:16;;;;;;;26.33;17.25;;;;;;;;;;5084405;28;20047;-68
2022/03/28 12:16:46;;;;;;;35.42;18.27;;;;;;;;;;5075192;28;20472;-70
2022/03/28 12:19:19;;;;;;;27.17;17.52;;;;;;;;;;5063982;28;20110;-71
2022/03/28 12:21:46;;;;;;;26.48;17.40;;;;;;;;;;5069991;28;20097;-71
2022/03/28 12:24:12;;;;;;;27.23;17.02;;;;;;;;;;5078709;28;20458;-68
2022/03/28 12:26:48;;;;;;;27.73;17.90;;;;;;;;;;5075390;28;20040;-71
2022/03/28 12:29:15;;;;;;;29.02;17.92;;;;;;;;;;5088444;28;20058;-70
2022/03/28 12:31:45;;;;;;;27.50;17.98;;;;;;;;;;5067637;28;20122;-68
2022/03/28 12:34:12;;;;;;;29.27;16.88;;;;;;;;;;5084235;28;20195;-67
2022/03/28 12:36:38;;;;;;;25.77;16.15;;;;;;;;;;5077045;28;20338;-66
2022/03/28 12:39:06;;;;;;;;;;;;;;;;;;5107303;27;20055;-65
2022/03/28 12:41:39;;;;;;;26.00;16.95;;;;;;;;;;5081148;28;19970;-66
2022/03/28 12:44:05;;;;;;;23.92;16.88;;;;;;;;;;5072111;28;20044;-65
2022/03/28 12:46:31;;;;;;;31.13;16.95;;;;;;;;;;5100015;28;20060;-66
2022/03/28 12:48:57;;;;;;;24.10;15.63;;;;;;;;;;5086960;28;20040;-66
2022/03/28 12:51:31;;;;;;;25.40;16.05;;;;;;;;;;5072215;28;20137;-65
2022/03/28 12:54:01;;;;;;;25.38;15.90;;;;;;;;;;5099130;28;20048;-67
2022/03/28 12:56:27;;;;;;;24.10;15.60;;;;;;;;;;5085684;28;20044;-67
2022/03/28 12:58:58;;;;;;;22.67;15.60;;;;;;;;;;5074433;28;20151;-67
2022/03/28 13:01:26;;;;;;;22.67;15.45;;;;;;;;;;5068870;28;20063;-68
2022/03/28 13:04:07;;;;;;;24.10;15.60;;;;;;;;;;5067743;28;20048;-65
2022/03/28 13:06:34;;;;;;;26.80;15.85;;;;;;;;;;5068566;28;20056;-68
2022/03/28 13:09:04;;;;;;;23.10;14.48;;;;;;;;;;5090780;28;20060;-67
2022/03/28 13:11:32;;;;;;;24.75;15.60;;;;;;;;;;5068483;28;20124;-69
2022/03/28 13:13:58;;;;;;;24.90;15.68;;;;;;;;;;5082564;28;20119;-67
2022/03/28 13:16:25;;;;;;;;;;;;;;;;;;5089124;28;20091;-66
2022/03/28 13:19:03;;;;;;;22.10;15.40;;;;;;;;;;5088893;28;20018;-67
2022/03/28 13:21:37;;;;;;;24.08;15.65;;;;;;;;;;5089028;28;20138;-68
2022/03/28 13:24:09;;;;;;;22.85;14.23;;;;;;;;;;5084797;28;20123;-67
2022/03/28 13:26:44;;;;;;;22.73;15.10;;;;;;;;;;5080276;28;20472;-67
2022/03/28 13:29:27;;;;;;;30.30;16.23;;;;;;;;;;5072744;28;20076;-67
2022/03/28 13:31:54;;;;;;;23.38;14.07;;;;;;;;;;5103688;27;20119;-66
2022/03/28 13:34:21;;;;;;;24.77;15.07;;;;;;;;;;5075432;28;20143;-68
2022/03/28 13:36:48;;;;;;;24.38;14.55;;;;;;;;;;5087646;28;20445;-71
2022/03/28 13:39:14;;;;;;;23.90;14.20;;;;;;;;;;5086515;28;20532;-71
2022/03/28 13:41:40;;;;;;;26.10;14.82;;;;;;;;;;5085554;28;20112;-70
2022/03/28 13:44:07;;;;;;;22.35;14.80;;;;;;;;;;5077064;28;20150;-70
2022/03/28 13:46:34;;;;;;;24.45;14.90;;;;;;;;;;5081849;28;20044;-70
2022/03/28 13:49:00;;;;;;;23.52;15.60;;;;;;;;;;5075776;28;20040;-69
2022/03/28 13:51:28;;;;;;;24.67;16.25;;;;;;;;;;5075170;28;20451;-72
2022/03/28 13:53:56;;;;;;;28.42;15.25;;;;;;;;;;5076212;28;20044;-69
2022/03/28 13:56:23;;;;;;;24.25;15.98;;;;;;;;;;5077095;28;20537;-71
2022/03/28 13:58:49;;;;;;;24.00;15.20;;;;;;;;;;5088390;28;20062;-71
2022/03/28 14:01:15;;;;;;;25.45;15.80;;;;;;;;;;5073169;28;20048;-71
2022/03/28 14:03:42;;;;;;;25.33;15.23;;;;;;;;;;5067592;28;20453;-72
2022/03/28 14:06:08;;;;;;;25.05;15.90;;;;;;;;;;5082505;28;20368;-70
2022/03/28 14:08:36;;;;;;;24.33;15.13;;;;;;;;;;5072538;28;20048;-70
2022/03/28 14:11:06;;;;;;;24.20;15.13;;;;;;;;;;5073828;28;20044;-69
2022/03/28 14:13:33;;;;;;;25.38;15.27;;;;;;;;;;5080128;28;20052;-67
2022/03/28 14:15:59;;;;;;;;;;;;;;;;;;5080367;28;20407;-67
2022/03/28 14:18:25;;;;;;;29.45;17.02;;;;;;;;;;5075372;28;19928;-70
2022/03/28 14:20:52;;;;;;;25.75;16.63;;;;;;;;;;5081333;28;20147;-70
2022/03/28 14:23:17;;;;;;;;;;;;;;;;;;5066845;28;20137;-70
2022/03/28 14:25:44;;;;;;;26.20;16.52;;;;;;;;;;5084131;28;20016;-67
2022/03/28 14:28:10;;;;;;;28.33;17.38;;;;;;;;;;5081669;28;20103;-65
2022/03/28 14:30:36;;;;;;;29.77;18.52;;;;;;;;;;5081592;28;20067;-69
2022/03/28 14:33:04;;;;;;;28.17;18.73;;;;;;;;;;5082462;28;20095;-70